Meteo Giornale » Osservazioni meteo Svezia » Stockholm-Arlanda

ore: 17:50 - Osservazioni Meteo Stockholm-Arlanda
Lat. 59° 39' N Lon. 17° 57' E Alt. 38 metri s.l.m.

sereno Europe/Stockholm

24 °C

Sereno

Temp. 24 Ore

12 °C

26 °C

Sud-Est

16.7 Km/h

Dew point 12 °C

Umidità 47 %

Visibilità  10 Km

Il sole sorge alle ore 04:15

Il sole tramonta alle ore 21:33

Data e Ora Cielo e Fenomeni T °C DP °C Um. % Pres. hPa Vis. km Vento km/h
Oggi h: 17:50 sereno Sereno 24 12 47 1017 10 SE 16.7
Oggi h: 17:20 sereno Sereno 25 11 41 1017 10 E/SE 16.7
Oggi h: 16:50 sereno Sereno 25 12 44 1017 10 E 18.5
Oggi h: 16:20 sereno Sereno 25 11 41 1017 10 E 18.5
Oggi h: 15:50 sereno Sereno 26 10 36 1018 10 SE 14.8
Oggi h: 15:20 sereno Sereno 26 11 39 1018 10 E/SE 16.7
Oggi h: 14:50 sereno Sereno 25 11 41 1018 10 SE 16.7
Oggi h: 14:20 sereno Sereno 26 12 41 1018 10 E/SE 16.7
Oggi h: 13:50 sereno Sereno 25 10 38 1018 10 SE 14.8
Oggi h: 13:20 sereno Sereno 25 10 38 1018 10 SE 16.7
Oggi h: 12:50 sereno Sereno 25 10 38 1019 10 S/SE 20.3
Oggi h: 12:20 sereno Sereno 24 12 47 1019 10 SE 16.7
Oggi h: 11:50 sereno Sereno 24 12 47 1019 10 S/SE 14.8
Oggi h: 11:20 sereno Sereno 24 12 47 1019 10 S/SE 16.7
Oggi h: 10:50 sereno Sereno 24 12 47 1019 10 S/SE 13
Oggi h: 10:20 sereno Sereno 23 13 53 1019 10 E/SE 13
Oggi h: 09:50 sereno Sereno 23 14 56 1019 10 E/SE 11.1
Oggi h: 09:20 sereno Sereno 22 14 60 1019 10 E 13
Oggi h: 08:50 sereno Sereno 21 14 64 1019 10 E/SE 13
Oggi h: 08:20 sereno Sereno 20 15 72 1019 10 E/SE 13
Oggi h: 07:50 sereno Sereno 19 15 77 1019 10 E/SE 11.1
Oggi h: 07:20 sereno Sereno 18 15 82 1019 10 E/SE 9.3
Oggi h: 06:50 sereno Sereno 17 15 88 1019 10 E/NE 9.3
Oggi h: 06:20 sereno Sereno 14 12 87 1019 10 E/NE 7.4
Oggi h: 05:50 sereno Sereno 13 11 87 1019 10 E/NE 7.4
Oggi h: 05:20 sereno Sereno 13 12 93 1019 10 E 9.3
Oggi h: 04:50 sereno Sereno 12 11 93 1019 10 E/NE 7.4
Oggi h: 04:20 sereno Sereno 13 11 87 1019 10 E/NE 9.3
Oggi h: 03:50 sereno Sereno 14 13 93 1019 10 E/NE 7.4
Oggi h: 03:20 sereno Sereno 13 10 81 1019 10 N 5.5
Oggi h: 02:50 sereno Sereno 14 12 87 1019 10 N 5.5
Oggi h: 02:20 sereno Sereno 14 11 82 1019 10 N 5.5
Oggi h: 01:50 sereno Sereno 15 11 76 1019 10 N 5.5
Oggi h: 01:20 sereno Sereno 15 11 76 1019 10 N 3.7
Oggi h: 00:50 sereno Sereno 15 11 76 1019 10 N 3.7
Oggi h: 00:20 sereno Sereno 16 10 67 1018 10 N 3.7
Ieri h: 23:50 sereno Sereno 17 11 67 1018 10 N 5.5
Ieri h: 23:20 sereno Sereno 18 11 63 1018 10 N 5.5
Ieri h: 22:50 sereno Sereno 18 11 63 1018 10 S 7.4
Ieri h: 22:20 sereno Sereno 20 11 56 1018 10 S/SE 9.3
Ieri h: 21:50 sereno Sereno 21 11 52 1018 10 S/SE 11.1
Ieri h: 21:20 sereno Sereno 22 11 49 1017 10 S/SE 13
Ieri h: 20:50 sereno Sereno 23 11 46 1017 10 S/SE 14.8
Ieri h: 20:20 sereno Sereno 23 11 46 1017 10 S/SE 13
Ieri h: 19:50 sereno Sereno 23 11 46 1017 10 S/SE 13
Ieri h: 19:20 sereno Sereno 24 11 43 1017 10 S 14.8
Ieri h: 18:50 sereno Sereno 24 11 43 1017 10 S/SO 18.5